High Springs, Florida
Current Conditions -  °F | °C
As of 7:53 AM on Friday 24 Oct 2014 (Local Time) from KGNV Reporting Station
Clear Clear  
Wind Chill: 46°   Ceiling: Unl
Heat Index: 46°   Visibility: 10mi
Dew Point: 45°   Wind: 3mph
Humidity: 96%   Direction: 290°WNW
Pressure: 30.02"   Gusts: NA
Location:  29.82°N, 82.59°W
Report Text: KGNV 241153Z 29003KT 10SM CLR 08/07 A3002 RMK AO2 SLP164 T00780072 10106 20072 53004
Loading
Personal Weather Stations






























Interactive Weather Map
Tropical Storm Tracking
New forecast layout! Learn more

10-Day Weather Forecast

Advertisements
Track Severe Weather on mobile